Time;durP1;ratioP1;P1;durP2;ratioP2;P2;SDS_P1;SDS_P2;PMS_P1;PMS_P2;Temp;Humidity;BMP_temperature;BMP_pressure;BME280_temperature;BME280_humidity;BME280_pressure;Samples;Min_cycle;Max_cycle;Signal;HPM_P1;HPM_P2
2022/06/05 00:02:31;;;;;;;3.08;2.08;;;21.20;54.90;;;;;;4972497;28;20503;-68
2022/06/05 00:05:11;;;;;;;3.05;2.30;;;21.20;54.90;;;;;;4972165;28;20038;-68
2022/06/05 00:08:05;;;;;;;3.28;2.15;;;21.20;54.90;;;;;;4971474;28;20038;-68
2022/06/05 00:10:52;;;;;;;2.40;2.00;;;21.20;54.90;;;;;;4973334;28;20039;-67
2022/06/05 00:13:35;;;;;;;3.58;2.22;;;21.20;54.90;;;;;;4972269;28;20069;-67
2022/06/05 00:16:01;;;;;;;2.83;2.08;;;21.20;55.00;;;;;;4971004;28;20039;-68
2022/06/05 00:18:31;;;;;;;2.72;2.03;;;21.20;54.90;;;;;;4972494;28;20086;-68
2022/06/05 00:20:57;;;;;;;3.00;2.10;;;21.20;54.90;;;;;;4971788;28;20368;-67
2022/06/05 00:23:22;;;;;;;3.13;2.00;;;21.20;54.90;;;;;;4972716;28;20365;-68
2022/06/05 00:26:16;;;;;;;2.90;2.13;;;21.20;54.90;;;;;;4972962;28;20081;-68
2022/06/05 00:29:19;;;;;;;2.70;1.70;;;21.20;54.90;;;;;;4972418;28;20026;-67
2022/06/05 00:32:34;;;;;;;3.33;2.15;;;21.20;54.90;;;;;;4964009;28;20395;-68
2022/06/05 00:35:00;;;;;;;2.85;1.95;;;21.20;54.90;;;;;;4939894;29;20046;-67
2022/06/05 00:37:45;;;;;;;3.90;2.45;;;21.20;54.90;;;;;;4953054;29;20476;-67
2022/06/05 00:40:34;;;;;;;3.35;2.00;;;21.20;55.10;;;;;;4953550;28;20027;-68
2022/06/05 00:43:03;;;;;;;2.65;2.10;;;21.20;54.90;;;;;;4953146;28;20444;-67
2022/06/05 00:45:31;;;;;;;2.38;1.88;;;21.20;54.90;;;;;;4952198;29;20110;-67
2022/06/05 00:47:57;;;;;;;3.50;2.05;;;21.20;54.90;;;;;;4964328;28;20039;-68
2022/06/05 00:50:29;;;;;;;1.95;1.67;;;21.20;54.90;;;;;;4972955;28;20103;-68
2022/06/05 00:52:58;;;;;;;3.08;2.30;;;21.20;54.90;;;;;;4972284;28;20038;-67
2022/06/05 00:55:27;;;;;;;2.70;2.00;;;21.20;54.80;;;;;;4972602;28;20030;-68
2022/06/05 00:57:54;;;;;;;2.83;1.90;;;21.20;54.90;;;;;;4972032;28;20037;-68
2022/06/05 01:00:34;;;;;;;3.50;1.92;;;21.20;54.80;;;;;;4972641;28;20026;-67
2022/06/05 01:03:02;;;;;;;;;;;21.20;54.90;;;;;;4971392;28;20041;-67
2022/06/05 01:05:29;;;;;;;3.47;1.83;;;21.20;54.80;;;;;;4971330;28;19914;-68
2022/06/05 01:07:55;;;;;;;2.40;1.80;;;21.20;54.90;;;;;;4971784;28;20165;-68
2022/06/05 01:10:25;;;;;;;2.60;2.00;;;21.20;54.80;;;;;;4971391;28;20027;-68
2022/06/05 01:13:12;;;;;;;3.65;2.10;;;21.20;54.90;;;;;;4972131;28;20046;-68
2022/06/05 01:16:14;;;;;;;2.92;2.22;;;21.20;54.80;;;;;;4978580;28;20476;-68
2022/06/05 01:18:51;;;;;;;3.22;2.30;;;21.20;54.90;;;;;;4978310;28;20440;-68
2022/06/05 01:21:42;;;;;;;2.92;2.00;;;21.20;54.90;;;;;;4976720;28;20472;-68
2022/06/05 01:24:22;;;;;;;3.00;2.03;;;21.20;54.90;;;;;;4977509;28;20033;-68
2022/06/05 01:27:01;;;;;;;;;;;21.20;54.90;;;;;;4978002;28;20410;-67
2022/06/05 01:29:37;;;;;;;5.65;2.50;;;21.20;54.90;;;;;;4992899;28;19910;-68
2022/06/05 01:32:09;;;;;;;2.47;2.00;;;21.20;54.90;;;;;;4977041;28;20502;-68
2022/06/05 01:34:41;;;;;;;3.42;2.22;;;21.10;54.80;;;;;;4977452;28;20395;-68
2022/06/05 01:37:14;;;;;;;3.53;2.13;;;21.20;54.90;;;;;;4977486;28;20387;-67
2022/06/05 01:39:44;;;;;;;2.72;2.00;;;21.20;54.90;;;;;;4978339;28;20391;-68
2022/06/05 01:42:16;;;;;;;2.60;1.92;;;21.20;54.90;;;;;;4977541;28;20502;-68
2022/06/05 01:44:45;;;;;;;3.97;2.20;;;21.20;54.90;;;;;;4977248;28;20035;-68
2022/06/05 01:47:33;;;;;;;2.38;1.80;;;21.10;54.80;;;;;;4961289;28;20057;-68
2022/06/05 01:50:11;;;;;;;3.22;2.03;;;21.20;54.90;;;;;;4978736;28;20499;-68
2022/06/05 01:52:52;;;;;;;3.15;2.00;;;21.10;54.90;;;;;;4978488;28;20423;-68
2022/06/05 01:55:45;;;;;;;3.35;2.20;;;21.20;54.90;;;;;;4977454;28;20332;-68
2022/06/05 01:58:14;;;;;;;3.00;2.10;;;21.20;54.90;;;;;;4977877;28;20027;-68
2022/06/05 02:00:41;;;;;;;2.92;2.00;;;21.20;54.90;;;;;;4978450;28;20027;-68
2022/06/05 02:03:26;;;;;;;2.92;2.30;;;21.20;54.80;;;;;;4978074;28;20027;-68
2022/06/05 02:06:05;;;;;;;3.08;2.05;;;21.20;54.80;;;;;;4977119;28;20126;-68
2022/06/05 02:08:38;;;;;;;3.08;2.03;;;21.20;54.80;;;;;;4977912;28;20031;-68
2022/06/05 02:11:15;;;;;;;3.75;2.22;;;21.20;54.80;;;;;;4977171;28;20038;-67
2022/06/05 02:13:41;;;;;;;2.30;1.80;;;21.20;54.80;;;;;;4977905;28;20328;-68
2022/06/05 02:16:08;;;;;;;3.17;1.90;;;21.20;54.80;;;;;;4978319;28;20395;-68
2022/06/05 02:18:34;;;;;;;4.45;2.30;;;21.20;54.80;;;;;;4976564;28;20511;-68
2022/06/05 02:21:02;;;;;;;2.88;2.13;;;21.20;54.80;;;;;;4978123;28;20031;-68
2022/06/05 02:23:32;;;;;;;2.85;2.15;;;21.20;54.90;;;;;;4977025;28;20018;-68
2022/06/05 02:26:01;;;;;;;2.63;1.95;;;21.10;54.80;;;;;;4973307;28;20035;-67
2022/06/05 02:28:27;;;;;;;2.67;2.00;;;21.10;54.80;;;;;;4973353;28;20516;-68
2022/06/05 02:30:53;;;;;;;2.47;1.95;;;21.10;54.80;;;;;;4975074;28;20055;-68
2022/06/05 02:33:40;;;;;;;4.03;2.20;;;21.10;54.80;;;;;;4974724;28;20034;-68
2022/06/05 02:36:13;;;;;;;5.15;2.20;;;21.10;54.80;;;;;;4974023;28;20023;-68
2022/06/05 02:39:00;;;;;;;3.10;2.10;;;21.20;54.80;;;;;;4972145;28;20043;-68
2022/06/05 02:41:56;;;;;;;3.35;2.10;;;21.10;54.80;;;;;;4967137;28;20373;-68
2022/06/05 02:44:32;;;;;;;4.10;2.30;;;21.20;54.90;;;;;;4975037;28;20035;-68
2022/06/05 02:47:17;;;;;;;2.55;1.67;;;21.10;54.80;;;;;;4974844;28;20034;-67
2022/06/05 02:50:10;;;;;;;3.08;2.30;;;21.10;54.80;;;;;;4974686;28;20045;-68
2022/06/05 02:52:37;;;;;;;3.63;2.22;;;21.10;54.80;;;;;;4972734;28;20049;-68
2022/06/05 02:55:07;;;;;;;3.15;2.13;;;21.10;54.80;;;;;;4974466;28;20484;-68
2022/06/05 02:57:34;;;;;;;3.15;2.13;;;21.10;54.90;;;;;;4974214;28;20050;-68
2022/06/05 03:00:01;;;;;;;3.40;2.10;;;21.10;54.80;;;;;;4973560;28;20392;-68
2022/06/05 03:05:11;;;;;;;2.88;2.03;;;21.10;54.80;;;;;;4974551;28;20026;-68
2022/06/05 03:07:37;;;;;;;2.95;2.08;;;21.20;54.80;;;;;;4971943;28;20037;-68
2022/06/05 03:10:03;;;;;;;3.40;1.98;;;21.20;54.80;;;;;;4974188;28;20070;-68
2022/06/05 03:12:29;;;;;;;3.97;1.92;;;21.10;54.80;;;;;;4974315;28;20081;-68
2022/06/05 03:15:00;;;;;;;2.10;1.80;;;21.20;54.80;;;;;;4974013;28;20037;-68
2022/06/05 03:17:27;;;;;;;2.80;2.10;;;21.20;54.80;;;;;;4973985;28;20045;-67
2022/06/05 03:19:52;;;;;;;4.00;2.15;;;21.20;54.80;;;;;;4974060;28;20027;-68
2022/06/05 03:22:18;;;;;;;3.95;2.25;;;21.20;54.80;;;;;;4973445;28;20097;-68
2022/06/05 03:24:44;;;;;;;2.58;2.10;;;21.20;54.80;;;;;;4973833;28;20033;-67
2022/06/05 03:27:10;;;;;;;3.80;2.15;;;21.10;54.80;;;;;;4974102;28;20031;-68
2022/06/05 03:29:36;;;;;;;3.45;2.15;;;21.10;54.80;;;;;;4956801;28;20464;-68
2022/06/05 03:32:02;;;;;;;3.38;2.40;;;21.10;54.80;;;;;;4973650;28;20034;-68
2022/06/05 03:34:27;;;;;;;2.58;2.17;;;21.10;54.80;;;;;;4972309;28;20043;-68
2022/06/05 03:36:53;;;;;;;3.75;2.20;;;21.10;54.90;;;;;;4964328;28;20045;-68
2022/06/05 03:39:19;;;;;;;3.65;2.22;;;21.10;54.90;;;;;;4973096;28;20034;-68
2022/06/05 03:41:45;;;;;;;3.50;2.50;;;21.10;54.80;;;;;;4972714;28;20069;-68
2022/06/05 03:44:12;;;;;;;3.17;2.30;;;21.10;54.90;;;;;;4974177;28;20090;-68
2022/06/05 03:46:39;;;;;;;2.53;1.98;;;21.10;54.80;;;;;;4973535;28;20031;-68
2022/06/05 03:49:07;;;;;;;3.30;2.17;;;21.10;54.80;;;;;;4972297;28;20046;-68
2022/06/05 03:51:33;;;;;;;3.00;2.30;;;21.10;54.90;;;;;;4972154;28;20113;-68
2022/06/05 03:53:59;;;;;;;2.85;2.10;;;21.10;54.80;;;;;;4972980;28;20380;-67
2022/06/05 03:56:27;;;;;;;3.42;2.30;;;21.10;54.90;;;;;;4972240;28;20023;-68
2022/06/05 03:58:54;;;;;;;4.18;2.30;;;21.10;54.90;;;;;;4954468;28;20019;-68
2022/06/05 04:01:22;;;;;;;3.50;2.22;;;21.10;54.80;;;;;;4970477;28;20026;-67
2022/06/05 04:03:49;;;;;;;3.65;2.30;;;21.10;54.80;;;;;;4973256;28;20177;-68
2022/06/05 04:06:17;;;;;;;4.25;2.20;;;21.10;54.90;;;;;;4973226;28;20033;-68
2022/06/05 04:08:43;;;;;;;3.13;2.45;;;21.10;54.80;;;;;;4971370;28;20045;-67
2022/06/05 04:11:11;;;;;;;3.60;2.42;;;21.10;54.80;;;;;;4973334;28;20027;-68
2022/06/05 04:13:37;;;;;;;3.67;2.33;;;21.10;54.70;;;;;;4971587;28;20035;-69
2022/06/05 04:16:22;;;;;;;3.70;2.65;;;21.20;54.80;;;;;;4971194;28;20033;-68
2022/06/05 04:18:49;;;;;;;2.70;2.20;;;21.20;54.80;;;;;;4972614;28;20031;-68
2022/06/05 04:21:20;;;;;;;3.10;2.42;;;21.20;54.70;;;;;;4972996;28;20030;-68
2022/06/05 04:23:47;;;;;;;4.18;2.53;;;21.10;54.70;;;;;;4939897;28;20039;-68
2022/06/05 04:26:16;;;;;;;4.10;2.45;;;21.20;54.80;;;;;;4972998;28;20078;-68
2022/06/05 04:28:43;;;;;;;3.70;2.85;;;21.10;54.60;;;;;;4971724;28;20038;-68
2022/06/05 04:31:23;;;;;;;3.20;2.20;;;21.10;54.70;;;;;;4971624;28;20030;-68
2022/06/05 04:33:51;;;;;;;3.28;2.08;;;21.10;54.70;;;;;;4971748;28;20074;-68
2022/06/05 04:36:18;;;;;;;4.03;2.45;;;21.10;54.70;;;;;;4972799;28;20031;-68
2022/06/05 04:38:44;;;;;;;3.47;2.53;;;21.10;54.70;;;;;;4971403;28;20031;-68
2022/06/05 04:41:10;;;;;;;4.38;2.60;;;21.10;54.70;;;;;;4971768;28;20082;-68
2022/06/05 04:43:36;;;;;;;3.80;2.70;;;21.10;54.70;;;;;;4971628;28;20026;-68
2022/06/05 04:46:03;;;;;;;3.50;2.28;;;21.10;54.70;;;;;;4972325;28;20062;-68
2022/06/05 04:48:29;;;;;;;2.58;2.10;;;21.10;54.80;;;;;;4972109;28;20054;-68
2022/06/05 04:50:55;;;;;;;3.90;2.70;;;21.10;54.80;;;;;;4955420;28;20049;-68
2022/06/05 04:53:21;;;;;;;4.63;2.55;;;21.10;54.80;;;;;;4972397;28;20026;-68
2022/06/05 04:55:47;;;;;;;3.95;2.30;;;21.10;54.80;;;;;;4972524;28;20542;-68
2022/06/05 04:58:13;;;;;;;4.18;2.60;;;21.10;54.80;;;;;;4971071;28;20018;-68
2022/06/05 05:00:39;;;;;;;3.28;2.45;;;21.10;54.80;;;;;;4954567;28;20106;-68
2022/06/05 05:03:05;;;;;;;3.25;2.10;;;21.10;54.70;;;;;;4970908;28;20031;-68
2022/06/05 05:05:30;;;;;;;3.72;2.50;;;21.10;54.80;;;;;;4971285;28;20038;-68
2022/06/05 05:07:56;;;;;;;3.95;2.63;;;21.10;54.70;;;;;;4971928;28;20029;-68
2022/06/05 05:10:22;;;;;;;3.92;2.50;;;21.10;54.80;;;;;;4972578;28;20085;-68
2022/06/05 05:12:48;;;;;;;4.22;2.70;;;21.10;54.80;;;;;;4970096;28;20092;-68
2022/06/05 05:15:14;;;;;;;3.92;2.75;;;21.10;54.80;;;;;;4971162;28;20062;-69
2022/06/05 05:17:40;;;;;;;4.82;3.00;;;21.10;54.70;;;;;;4970479;28;20487;-68
2022/06/05 05:20:06;;;;;;;4.10;2.90;;;21.20;54.70;;;;;;4971377;28;20499;-68
2022/06/05 05:22:37;;;;;;;4.68;2.80;;;21.20;54.70;;;;;;4971933;28;20038;-68
2022/06/05 05:25:08;;;;;;;4.28;2.55;;;21.20;54.70;;;;;;4971187;28;20034;-68
2022/06/05 05:27:35;;;;;;;3.17;2.40;;;21.20;54.70;;;;;;4970563;28;20053;-68
2022/06/05 05:30:02;;;;;;;3.75;2.70;;;21.20;54.60;;;;;;4971063;28;20035;-68
2022/06/05 05:32:28;;;;;;;4.13;3.10;;;21.20;54.70;;;;;;5001634;23;20449;-71
2022/06/05 05:34:54;;;;;;;4.13;2.72;;;21.20;54.70;;;;;;4990709;28;20356;-71
2022/06/05 05:37:20;;;;;;;4.40;2.83;;;21.20;55.20;;;;;;5010680;28;20041;-71
2022/06/05 05:42:30;;;;;;;4.18;2.58;;;21.20;54.70;;;;;;5004618;28;20029;-71
2022/06/05 05:45:02;;;;;;;4.97;2.80;;;21.20;54.70;;;;;;4993964;28;20410;-71
2022/06/05 05:47:32;;;;;;;3.63;2.65;;;21.20;54.70;;;;;;5010676;28;20546;-71
2022/06/05 05:50:11;;;;;;;3.22;2.60;;;21.20;54.70;;;;;;5009864;28;20483;-71
2022/06/05 05:52:37;;;;;;;4.90;2.83;;;21.10;54.70;;;;;;5009756;28;20380;-71
2022/06/05 05:55:05;;;;;;;3.50;2.75;;;21.10;54.70;;;;;;5009177;28;20101;-71
2022/06/05 05:57:31;;;;;;;5.10;2.70;;;21.10;54.70;;;;;;5009356;28;20039;-71
2022/06/05 05:59:57;;;;;;;3.50;2.58;;;21.10;54.70;;;;;;5010127;28;20456;-71
2022/06/05 06:02:25;;;;;;;3.63;2.50;;;21.10;54.80;;;;;;5014122;28;20026;-71
2022/06/05 06:04:52;;;;;;;4.63;2.60;;;21.20;54.80;;;;;;5013543;28;20065;-71
2022/06/05 06:07:19;;;;;;;3.47;2.60;;;21.10;54.70;;;;;;5013011;28;20057;-71
2022/06/05 06:09:45;;;;;;;4.57;2.97;;;21.10;54.70;;;;;;5004181;28;20034;-71
2022/06/05 06:12:12;;;;;;;4.78;2.97;;;21.10;54.80;;;;;;5012717;28;20060;-71
2022/06/05 06:14:39;;;;;;;4.13;2.60;;;21.10;54.70;;;;;;5013206;28;20030;-71
2022/06/05 06:17:05;;;;;;;4.13;2.67;;;21.10;54.70;;;;;;5014219;28;20057;-71
2022/06/05 06:19:31;;;;;;;4.32;2.83;;;21.10;54.70;;;;;;5014182;28;20092;-71
2022/06/05 06:21:56;;;;;;;3.60;2.75;;;21.20;54.80;;;;;;5014194;28;20029;-71
2022/06/05 06:24:22;;;;;;;4.05;2.65;;;21.10;54.70;;;;;;5012299;28;20026;-71
2022/06/05 06:26:48;;;;;;;3.78;2.45;;;21.20;54.70;;;;;;5014228;28;20038;-71
2022/06/05 06:29:14;;;;;;;4.82;2.78;;;21.20;54.70;;;;;;5012869;28;20037;-72
2022/06/05 06:31:41;;;;;;;5.07;3.20;;;21.20;54.70;;;;;;4996439;28;20477;-71
2022/06/05 06:34:08;;;;;;;4.32;2.78;;;21.20;54.60;;;;;;4996669;28;20441;-71
2022/06/05 06:36:37;;;;;;;3.97;2.90;;;21.20;54.70;;;;;;4979102;28;20057;-71
2022/06/05 06:39:03;;;;;;;4.05;3.13;;;21.20;54.60;;;;;;5013501;28;20536;-71
2022/06/05 06:41:29;;;;;;;4.32;2.65;;;21.20;54.60;;;;;;5014090;28;20065;-71
2022/06/05 06:43:55;;;;;;;3.65;2.65;;;21.20;54.70;;;;;;5012694;28;20506;-71
2022/06/05 06:46:21;;;;;;;3.53;2.78;;;21.20;54.70;;;;;;5013866;28;20030;-71
2022/06/05 06:48:47;;;;;;;5.55;2.90;;;21.20;54.70;;;;;;5013337;28;20033;-71
2022/06/05 06:51:15;;;;;;;3.38;2.63;;;21.20;54.70;;;;;;5011730;28;20376;-71
2022/06/05 06:53:41;;;;;;;4.25;3.05;;;21.20;54.70;;;;;;5013382;28;20038;-71
2022/06/05 06:56:24;;;;;;;3.45;2.72;;;21.20;54.70;;;;;;4996568;28;20021;-71
2022/06/05 06:58:50;;;;;;;4.38;2.78;;;21.20;54.80;;;;;;5013183;28;20119;-71
2022/06/05 07:01:16;;;;;;;5.50;2.88;;;21.20;54.80;;;;;;5013687;28;20060;-72
2022/06/05 07:03:42;;;;;;;3.97;2.72;;;21.20;54.70;;;;;;5013301;28;20038;-71
2022/06/05 07:06:11;;;;;;;4.05;2.83;;;21.20;54.80;;;;;;5012596;28;20375;-71
2022/06/05 07:08:37;;;;;;;4.88;2.80;;;21.20;54.80;;;;;;5013065;28;20036;-71
2022/06/05 07:11:07;;;;;;;4.90;2.90;;;21.20;54.80;;;;;;5013404;28;20034;-71
2022/06/05 07:13:34;;;;;;;4.20;2.90;;;21.20;54.80;;;;;;5011640;28;20045;-71
2022/06/05 07:16:00;;;;;;;3.90;2.33;;;21.20;54.80;;;;;;5013615;28;20409;-71
2022/06/05 07:18:26;;;;;;;3.53;2.58;;;21.20;54.90;;;;;;5012988;28;20018;-71
2022/06/05 07:20:52;;;;;;;4.50;2.88;;;21.20;54.80;;;;;;5013328;28;20072;-71
2022/06/05 07:23:17;;;;;;;3.83;2.88;;;21.20;54.80;;;;;;5010782;28;20025;-70
2022/06/05 07:25:51;;;;;;;4.32;2.97;;;21.20;54.80;;;;;;5013229;28;20079;-71
2022/06/05 07:28:18;;;;;;;3.75;2.60;;;21.20;54.80;;;;;;5012857;28;20340;-70
2022/06/05 07:30:51;;;;;;;5.05;3.05;;;21.20;54.80;;;;;;5013755;28;20084;-71
2022/06/05 07:33:18;;;;;;;4.70;2.83;;;21.20;54.80;;;;;;5011762;28;20034;-71
2022/06/05 07:35:44;;;;;;;3.70;2.90;;;21.20;54.90;;;;;;5012924;28;20040;-71
2022/06/05 07:38:11;;;;;;;4.70;3.00;;;21.20;54.90;;;;;;5012657;28;20112;-71
2022/06/05 07:40:41;;;;;;;3.95;2.85;;;21.30;55.00;;;;;;5011053;28;20033;-71
2022/06/05 07:43:09;;;;;;;3.53;2.88;;;21.30;54.90;;;;;;5011423;28;20522;-71
2022/06/05 07:45:36;;;;;;;4.07;2.85;;;21.30;54.90;;;;;;4995432;28;20093;-71
2022/06/05 07:48:02;;;;;;;4.72;2.72;;;21.30;55.00;;;;;;5011068;28;20030;-71
2022/06/05 07:50:28;;;;;;;4.40;2.90;;;21.30;54.90;;;;;;5012774;28;20034;-71
2022/06/05 07:55:38;;;;;;;4.20;2.67;;;21.30;55.00;;;;;;5011314;28;20024;-71
2022/06/05 07:58:04;;;;;;;3.97;2.67;;;21.30;54.90;;;;;;5010775;28;20104;-71
2022/06/05 08:00:31;;;;;;;4.00;2.83;;;21.30;54.90;;;;;;5012598;28;20026;-70
2022/06/05 08:02:57;;;;;;;3.50;2.60;;;21.30;55.00;;;;;;5012212;28;20034;-71
2022/06/05 08:05:23;;;;;;;4.47;2.97;;;21.30;54.90;;;;;;5011315;28;20108;-71
2022/06/05 08:07:48;;;;;;;3.55;2.33;;;21.30;55.00;;;;;;5010905;28;20117;-71
2022/06/05 08:10:14;;;;;;;4.40;2.85;;;21.30;55.00;;;;;;4994873;28;20088;-71
2022/06/05 08:12:40;;;;;;;4.18;3.00;;;21.30;55.00;;;;;;4994686;28;20056;-71
2022/06/05 08:15:12;;;;;;;4.47;2.90;;;21.30;55.10;;;;;;5012353;28;20420;-71
2022/06/05 08:17:38;;;;;;;3.72;2.42;;;21.30;55.10;;;;;;5010664;28;20061;-71
2022/06/05 08:20:06;;;;;;;3.78;2.80;;;21.30;55.10;;;;;;4994784;28;20026;-71
2022/06/05 08:22:33;;;;;;;4.13;2.92;;;21.30;55.10;;;;;;5011146;28;20030;-71
2022/06/05 08:24:58;;;;;;;4.05;2.63;;;21.30;55.10;;;;;;5010638;28;20029;-71
2022/06/05 08:27:26;;;;;;;4.05;2.80;;;21.30;55.10;;;;;;5010700;28;20547;-72
2022/06/05 08:29:55;;;;;;;4.07;2.85;;;21.30;55.20;;;;;;4994547;28;20041;-71
2022/06/05 08:32:22;;;;;;;3.65;2.53;;;21.30;55.10;;;;;;5011641;28;20034;-71
2022/06/05 08:34:48;;;;;;;3.17;2.53;;;21.30;55.20;;;;;;5010740;28;20060;-71
2022/06/05 08:42:59;;;;;;;4.40;2.88;;;21.30;55.10;;;;;;5010664;28;20022;-71
2022/06/05 08:45:36;;;;;;;3.97;2.88;;;21.30;55.10;;;;;;5010777;28;20037;-71
2022/06/05 08:48:09;;;;;;;3.50;2.70;;;21.30;55.20;;;;;;5010133;28;20144;-71
2022/06/05 08:50:43;;;;;;;4.28;2.88;;;21.30;55.20;;;;;;4994306;28;20034;-71
2022/06/05 08:53:32;;;;;;;3.80;2.85;;;21.30;55.10;;;;;;5011442;28;20478;-71
2022/06/05 08:55:59;;;;;;;4.60;2.97;;;21.30;55.20;;;;;;4990140;28;20026;-71
2022/06/05 08:58:31;;;;;;;4.00;2.67;;;21.30;55.20;;;;;;5010024;28;20284;-71
2022/06/05 09:01:03;;;;;;;4.80;3.17;;;21.30;55.20;;;;;;5010241;28;20056;-71
2022/06/05 09:03:33;;;;;;;4.05;2.83;;;21.30;55.30;;;;;;5011508;28;20045;-71
2022/06/05 09:06:14;;;;;;;3.80;2.70;;;21.40;55.30;;;;;;5011739;28;20037;-72
2022/06/05 09:08:42;;;;;;;4.18;2.90;;;21.30;55.20;;;;;;5011177;28;20121;-71
2022/06/05 09:11:23;;;;;;;6.80;3.17;;;21.30;55.30;;;;;;4992810;28;20034;-71
2022/06/05 09:14:05;;;;;;;3.88;2.88;;;21.40;55.40;;;;;;4993590;28;20446;-71
2022/06/05 09:16:35;;;;;;;3.67;2.70;;;21.30;55.30;;;;;;5010561;28;20032;-72
2022/06/05 09:19:03;;;;;;;4.20;3.00;;;21.30;55.30;;;;;;5010791;28;20092;-71
2022/06/05 09:21:45;;;;;;;4.22;2.55;;;21.30;55.80;;;;;;5010661;28;20524;-72
2022/06/05 09:24:36;;;;;;;3.95;2.85;;;21.30;55.30;;;;;;5011448;28;20084;-72
2022/06/05 09:27:25;;;;;;;3.00;2.55;;;21.40;55.40;;;;;;5010829;28;20026;-72
2022/06/05 09:30:01;;;;;;;3.63;2.50;;;21.30;55.30;;;;;;5006990;28;20518;-72
2022/06/05 09:32:46;;;;;;;3.95;2.65;;;21.30;55.30;;;;;;5011000;28;20034;-72
2022/06/05 09:35:12;;;;;;;3.97;2.70;;;21.30;55.40;;;;;;4995215;28;20061;-72
2022/06/05 09:37:49;;;;;;;2.80;2.40;;;21.30;55.40;;;;;;5015087;28;20060;-72
2022/06/05 09:40:17;;;;;;;3.33;2.70;;;21.40;55.40;;;;;;5013933;28;20034;-73
2022/06/05 09:43:10;;;;;;;3.38;2.53;;;21.30;55.30;;;;;;5015162;28;20049;-72
2022/06/05 09:45:55;;;;;;;3.63;2.58;;;21.30;55.30;;;;;;5013259;28;20053;-72
2022/06/05 09:48:33;;;;;;;3.47;2.80;;;21.30;55.40;;;;;;5007242;28;20030;-72
2022/06/05 09:51:00;;;;;;;3.85;2.65;;;21.40;55.40;;;;;;5015151;28;20038;-72
2022/06/05 09:53:31;;;;;;;3.50;2.67;;;21.40;55.40;;;;;;5014686;28;20467;-72
2022/06/05 09:56:06;;;;;;;4.38;3.08;;;21.40;55.40;;;;;;5014923;28;20096;-72
2022/06/05 09:59:16;;;;;;;3.67;2.40;;;21.40;55.40;;;;;;5014515;28;20022;-72
2022/06/05 10:01:54;;;;;;;2.78;2.20;;;21.40;55.40;;;;;;5012564;28;20104;-72
2022/06/05 10:04:21;;;;;;;4.00;2.75;;;21.40;55.40;;;;;;5006912;28;20058;-73
2022/06/05 10:06:55;;;;;;;3.65;2.60;;;21.40;56.00;;;;;;5014669;28;20049;-72
2022/06/05 10:09:27;;;;;;;4.78;2.50;;;21.40;55.40;;;;;;5014326;28;20030;-72
2022/06/05 10:11:58;;;;;;;3.90;2.70;;;21.40;55.40;;;;;;5014393;28;20018;-72
2022/06/05 10:14:28;;;;;;;3.40;2.65;;;21.40;55.40;;;;;;5014483;28;20030;-73
2022/06/05 10:17:05;;;;;;;3.97;2.65;;;21.40;55.50;;;;;;5013383;28;20104;-72
2022/06/05 10:20:06;;;;;;;3.22;2.33;;;21.30;55.30;;;;;;5013104;28;20041;-72
2022/06/05 10:22:56;;;;;;;3.58;2.65;;;21.30;55.40;;;;;;5014116;28;20037;-72
2022/06/05 10:25:42;;;;;;;3.88;2.70;;;21.40;55.50;;;;;;5014655;28;20045;-72
2022/06/05 10:28:30;;;;;;;3.13;2.50;;;21.40;55.50;;;;;;5013800;28;20026;-72
2022/06/05 10:31:11;;;;;;;3.03;2.60;;;21.40;56.00;;;;;;5014405;28;20030;-72
2022/06/05 10:33:43;;;;;;;3.60;2.40;;;21.30;55.30;;;;;;5012944;28;20441;-73
2022/06/05 10:36:19;;;;;;;4.25;2.80;;;21.30;55.40;;;;;;4996661;28;20034;-72
2022/06/05 10:39:17;;;;;;;3.65;2.60;;;21.40;55.40;;;;;;5012467;28;20034;-72
2022/06/05 10:41:52;;;;;;;3.40;2.55;;;21.40;55.50;;;;;;5013590;28;20038;-72
2022/06/05 10:44:35;;;;;;;5.13;2.50;;;21.30;55.40;;;;;;5013916;28;20136;-72
2022/06/05 10:47:27;;;;;;;3.20;2.50;;;21.30;55.40;;;;;;5013253;28;20121;-73
2022/06/05 10:50:25;;;;;;;3.53;2.70;;;21.30;55.40;;;;;;5011854;28;20118;-72
2022/06/05 10:53:28;;;;;;;3.53;2.42;;;21.40;55.50;;;;;;5006839;28;20046;-72
2022/06/05 10:56:23;;;;;;;3.40;2.50;;;21.40;55.50;;;;;;5014272;28;20406;-72
2022/06/05 10:59:14;;;;;;;4.82;3.20;;;21.40;55.50;;;;;;5012042;28;20418;-72
2022/06/05 11:02:05;;;;;;;3.60;2.60;;;21.40;55.40;;;;;;4996383;28;20029;-72
2022/06/05 11:05:12;;;;;;;4.32;2.38;;;21.40;55.50;;;;;;5013455;28;20018;-72
2022/06/05 11:08:14;;;;;;;4.03;2.78;;;21.40;55.50;;;;;;5007385;28;20060;-72
2022/06/05 11:14:14;;;;;;;2.83;2.42;;;21.40;55.40;;;;;;5012022;28;20037;-72
2022/06/05 11:16:49;;;;;;;3.80;2.50;;;21.40;55.50;;;;;;5013505;28;20033;-72
2022/06/05 11:19:52;;;;;;;3.67;2.42;;;21.40;55.50;;;;;;5011953;28;20034;-73
2022/06/05 11:22:20;;;;;;;3.10;2.50;;;21.30;55.50;;;;;;5010293;28;20036;-72
2022/06/05 11:24:52;;;;;;;4.00;2.45;;;21.40;55.50;;;;;;5013138;28;20029;-72
2022/06/05 11:27:47;;;;;;;3.08;2.45;;;21.30;55.50;;;;;;5011098;28;20030;-72
2022/06/05 11:30:32;;;;;;;3.08;2.40;;;21.30;55.50;;;;;;5012334;28;20398;-72
2022/06/05 11:33:09;;;;;;;3.33;2.70;;;21.30;55.50;;;;;;5011738;23;20049;-69
2022/06/05 11:35:51;;;;;;;3.20;2.45;;;21.30;55.50;;;;;;4992289;28;20069;-70
2022/06/05 11:38:44;;;;;;;4.18;2.67;;;21.40;55.50;;;;;;4989648;28;20121;-70
2022/06/05 11:41:26;;;;;;;3.05;2.40;;;21.30;55.50;;;;;;4992378;28;20054;-70
2022/06/05 11:44:25;;;;;;;3.10;2.50;;;21.30;55.50;;;;;;4992757;28;20045;-70
2022/06/05 11:47:04;;;;;;;3.05;2.33;;;21.30;55.50;;;;;;4992216;28;20399;-69
2022/06/05 11:49:30;;;;;;;3.85;2.60;;;21.30;55.50;;;;;;4992760;28;20326;-69
2022/06/05 11:52:02;;;;;;;3.53;2.60;;;21.30;55.50;;;;;;4991668;28;20052;-70
2022/06/05 11:54:37;;;;;;;3.13;2.30;;;21.40;55.50;;;;;;4991009;28;20029;-70
2022/06/05 11:57:14;;;;;;;2.97;2.40;;;21.30;55.50;;;;;;4993013;28;20030;-70
2022/06/05 11:59:55;;;;;;;3.00;2.55;;;21.30;55.50;;;;;;4991943;28;20038;-69
2022/06/05 12:02:43;;;;;;;3.38;2.55;;;21.40;55.50;;;;;;4991593;28;20035;-71
2022/06/05 12:05:20;;;;;;;3.15;2.50;;;21.40;55.50;;;;;;4992985;28;20101;-69
2022/06/05 12:07:49;;;;;;;3.40;2.60;;;21.30;55.50;;;;;;4991910;28;20040;-71
2022/06/05 12:10:38;;;;;;;3.53;2.35;;;21.40;55.60;;;;;;4990616;28;20033;-71
2022/06/05 12:13:13;;;;;;;3.05;2.28;;;21.40;55.50;;;;;;4991355;28;20038;-71
2022/06/05 12:16:05;;;;;;;4.07;2.88;;;21.40;55.50;;;;;;4975610;28;20211;-69
2022/06/05 12:18:39;;;;;;;3.53;2.50;;;21.40;55.50;;;;;;4974992;28;20026;-68
2022/06/05 12:21:27;;;;;;;3.50;2.50;;;21.40;55.50;;;;;;4991529;28;20105;-68
2022/06/05 12:24:19;;;;;;;2.90;2.30;;;21.40;55.60;;;;;;4989073;28;20038;-68
2022/06/05 12:27:13;;;;;;;3.10;2.40;;;21.40;55.60;;;;;;4972680;28;20101;-68
2022/06/05 12:29:52;;;;;;;3.30;2.53;;;21.40;55.60;;;;;;4990495;28;20034;-68
2022/06/05 12:32:30;;;;;;;2.75;2.17;;;21.40;55.60;;;;;;4992056;28;20034;-68
2022/06/05 12:35:06;;;;;;;2.60;2.17;;;21.40;55.60;;;;;;4990983;28;20556;-68
2022/06/05 12:37:39;;;;;;;2.95;2.53;;;21.40;55.70;;;;;;4991954;28;20018;-69
2022/06/05 12:40:16;;;;;;;2.83;2.30;;;21.40;55.60;;;;;;4992143;28;20391;-69
2022/06/05 12:43:11;;;;;;;3.58;2.63;;;21.40;55.60;;;;;;4989647;28;20030;-69
2022/06/05 12:45:41;;;;;;;3.88;2.60;;;21.40;55.70;;;;;;4987024;28;20456;-69
2022/06/05 12:48:10;;;;;;;;;;;21.40;55.70;;;;;;4992164;28;20403;-69
2022/06/05 12:50:45;;;;;;;4.00;2.30;;;21.40;55.60;;;;;;4992215;28;19910;-69
2022/06/05 12:53:30;;;;;;;3.63;2.40;;;21.40;55.70;;;;;;4991676;28;20530;-69
2022/06/05 12:56:20;;;;;;;3.28;2.30;;;21.40;55.70;;;;;;4991963;28;20113;-69
2022/06/05 12:58:50;;;;;;;;;;;21.30;55.60;;;;;;4990822;28;20022;-69
2022/06/05 13:01:45;;;;;;;3.40;2.47;;;21.40;55.70;;;;;;4989745;28;19963;-69
2022/06/05 13:04:22;;;;;;;3.80;2.95;;;21.40;55.70;;;;;;4989187;28;20042;-69
2022/06/05 13:07:00;;;;;;;3.03;2.30;;;21.40;55.70;;;;;;4992238;28;20110;-69
2022/06/05 13:09:38;;;;;;;3.03;2.53;;;21.30;55.70;;;;;;4989950;28;20109;-69
2022/06/05 13:12:42;;;;;;;3.47;2.67;;;21.40;55.80;;;;;;4990536;28;20109;-69
2022/06/05 13:15:39;;;;;;;2.88;2.22;;;21.40;55.80;;;;;;4990537;28;20031;-69
2022/06/05 13:18:19;;;;;;;3.55;2.50;;;21.40;55.70;;;;;;4989129;28;20399;-69
2022/06/05 13:21:12;;;;;;;3.03;2.17;;;21.40;55.70;;;;;;4990824;28;20074;-69
2022/06/05 13:23:54;;;;;;;3.35;2.45;;;21.40;55.60;;;;;;4991624;28;20070;-69
2022/06/05 13:26:45;;;;;;;3.17;2.20;;;21.40;55.60;;;;;;4974188;28;20510;-69
2022/06/05 13:29:11;;;;;;;3.63;2.60;;;21.40;55.70;;;;;;4991052;28;20083;-69
2022/06/05 13:32:08;;;;;;;3.75;2.45;;;21.40;55.70;;;;;;4990451;28;20034;-69
2022/06/05 13:34:41;;;;;;;3.30;2.35;;;21.40;55.70;;;;;;4990615;28;20037;-69
2022/06/05 13:37:13;;;;;;;3.17;2.65;;;21.40;55.70;;;;;;4990485;28;20034;-69
2022/06/05 13:39:53;;;;;;;3.05;2.63;;;21.40;55.70;;;;;;4973967;28;20391;-69
2022/06/05 13:42:23;;;;;;;3.63;2.58;;;21.40;55.70;;;;;;4991540;28;20089;-69